Time;durP1;ratioP1;P1;durP2;ratioP2;P2;SDS_P1;SDS_P2;PMS_P1;PMS_P2;Temp;Humidity;BMP_temperature;BMP_pressure;BME280_temperature;BME280_humidity;BME280_pressure;Samples;Min_cycle;Max_cycle;Signal;HPM_P1;HPM_P2
2023/06/12 00:01:20;;;;;;;24.67;23.47;;;27.50;43.20;;;;;;5051486;28;21054;-62
2023/06/12 00:03:47;;;;;;;25.47;24.27;;;27.50;43.20;;;;;;5051559;28;20440;-62
2023/06/12 00:06:17;;;;;;;24.13;23.03;;;27.60;43.10;;;;;;5051357;28;20444;-61
2023/06/12 00:08:44;;;;;;;24.20;23.00;;;27.50;43.10;;;;;;5046297;28;20477;-61
2023/06/12 00:11:12;;;;;;;24.37;23.17;;;27.50;43.10;;;;;;5032905;28;20468;-61
2023/06/12 00:13:40;;;;;;;24.90;23.70;;;27.50;43.10;;;;;;5035821;28;20453;-61
2023/06/12 00:16:07;;;;;;;24.73;23.53;;;27.50;43.20;;;;;;5035854;28;20878;-62
2023/06/12 00:18:36;;;;;;;24.00;22.80;;;27.50;43.20;;;;;;5053387;28;20480;-62
2023/06/12 00:21:03;;;;;;;24.60;23.40;;;27.50;43.20;;;;;;5041996;28;20987;-61
2023/06/12 00:23:30;;;;;;;25.07;23.63;;;27.40;43.10;;;;;;5035819;28;20552;-61
2023/06/12 00:25:57;;;;;;;25.60;24.30;;;27.40;43.30;;;;;;5035754;28;20571;-61
2023/06/12 00:28:23;;;;;;;25.27;23.97;;;27.40;43.30;;;;;;5037235;28;20488;-61
2023/06/12 00:30:50;;;;;;;24.00;22.80;;;27.40;43.40;;;;;;5036142;28;20982;-61
2023/06/12 00:33:17;;;;;;;24.80;23.60;;;27.40;43.50;;;;;;5035692;28;20911;-61
2023/06/12 00:35:47;;;;;;;25.83;24.57;;;27.30;43.40;;;;;;5035420;28;20978;-61
2023/06/12 00:38:14;;;;;;;24.37;23.27;;;27.30;43.50;;;;;;5049594;28;20523;-61
2023/06/12 00:40:41;;;;;;;24.13;23.03;;;27.30;43.50;;;;;;5056146;28;20559;-61
2023/06/12 00:43:08;;;;;;;24.40;23.20;;;27.30;43.50;;;;;;5055897;28;20496;-61
2023/06/12 00:45:36;;;;;;;27.27;26.07;;;27.30;43.40;;;;;;5055513;28;20543;-61
2023/06/12 00:48:05;;;;;;;28.43;27.03;;;27.30;43.40;;;;;;5044167;28;20524;-60
2023/06/12 00:50:33;;;;;;;27.10;25.80;;;27.30;43.50;;;;;;5036438;28;20448;-60
2023/06/12 00:53:01;;;;;;;25.30;24.20;;;27.30;43.70;;;;;;5036289;28;20500;-60
2023/06/12 00:55:32;;;;;;;27.53;26.17;;;27.30;43.70;;;;;;5036017;28;20545;-61
2023/06/12 00:58:01;;;;;;;26.03;24.93;;;27.20;43.70;;;;;;5046867;28;20451;-61
2023/06/12 01:00:28;;;;;;;24.00;22.87;;;27.20;43.70;;;;;;5040593;28;20481;-61
2023/06/12 01:03:03;;;;;;;24.30;23.20;;;27.20;43.80;;;;;;5035288;28;20532;-61
2023/06/12 01:05:33;;;;;;;24.77;23.57;;;27.20;43.90;;;;;;5035617;28;20472;-61
2023/06/12 01:08:15;;;;;;;24.10;22.90;;;27.20;44.00;;;;;;5046780;28;20451;-61
2023/06/12 01:10:47;;;;;;;24.63;23.43;;;27.10;44.00;;;;;;5055369;28;20502;-60
2023/06/12 01:13:16;;;;;;;24.80;23.60;;;27.10;44.10;;;;;;5055376;28;20468;-61
2023/06/12 01:15:43;;;;;;;23.63;22.43;;;27.10;44.20;;;;;;5055074;28;20448;-61
2023/06/12 01:18:10;;;;;;;23.87;22.67;;;27.10;44.20;;;;;;5043213;28;20449;-61
2023/06/12 01:20:38;;;;;;;24.10;22.97;;;27.10;44.20;;;;;;5034908;28;20444;-61
2023/06/12 01:23:13;;;;;;;24.37;23.00;;;27.10;44.20;;;;;;5034079;28;20468;-61
2023/06/12 01:26:18;;;;;;;24.17;23.07;;;27.10;44.80;;;;;;5039126;28;20475;-60
2023/06/12 01:29:24;;;;;;;24.43;23.23;;;27.10;44.20;;;;;;5054816;28;20510;-60
2023/06/12 01:32:01;;;;;;;24.53;23.23;;;27.00;44.20;;;;;;5031627;28;21009;-61
2023/06/12 01:34:33;;;;;;;24.00;22.90;;;27.00;44.40;;;;;;5054926;28;20478;-60
2023/06/12 01:37:09;;;;;;;24.97;23.53;;;27.00;44.40;;;;;;5039207;28;20499;-61
2023/06/12 01:39:41;;;;;;;24.10;23.00;;;27.00;44.40;;;;;;5035368;28;20440;-60
2023/06/12 01:42:09;;;;;;;25.03;23.73;;;26.90;44.40;;;;;;5034664;28;20567;-61
2023/06/12 01:44:37;;;;;;;23.77;22.67;;;26.90;44.50;;;;;;5035073;28;20960;-61
2023/06/12 01:47:06;;;;;;;23.53;22.40;;;26.90;44.40;;;;;;5049293;28;20484;-61
2023/06/12 01:49:33;;;;;;;24.17;23.07;;;26.90;44.40;;;;;;5055235;28;20491;-61
2023/06/12 01:52:00;;;;;;;24.20;22.80;;;26.90;44.40;;;;;;5054826;28;21015;-61
2023/06/12 01:54:27;;;;;;;24.70;23.50;;;26.90;44.50;;;;;;5054510;28;20460;-61
2023/06/12 01:56:55;;;;;;;23.90;22.70;;;26.90;44.40;;;;;;5039833;28;20453;-59
2023/06/12 01:59:22;;;;;;;24.13;22.93;;;26.90;44.50;;;;;;5052460;28;20448;-60
2023/06/12 02:01:48;;;;;;;24.40;23.20;;;26.80;44.50;;;;;;5053883;28;20582;-61
2023/06/12 02:04:17;;;;;;;25.07;23.87;;;26.80;44.60;;;;;;5054040;28;20476;-61
2023/06/12 02:06:44;;;;;;;24.50;23.30;;;26.80;44.70;;;;;;5041455;28;20456;-61
2023/06/12 02:09:11;;;;;;;24.60;23.30;;;26.80;45.30;;;;;;5034304;28;20453;-61
2023/06/12 02:11:38;;;;;;;23.60;22.50;;;26.80;44.90;;;;;;5034295;28;20512;-61
2023/06/12 02:14:05;;;;;;;24.80;23.60;;;26.80;45.00;;;;;;5036339;28;20480;-60
2023/06/12 02:16:32;;;;;;;23.80;22.63;;;26.80;45.10;;;;;;5043967;28;20476;-61
2023/06/12 02:18:59;;;;;;;24.43;23.10;;;26.80;45.20;;;;;;5036358;28;20487;-61
2023/06/12 02:21:27;;;;;;;24.57;23.43;;;26.80;45.20;;;;;;5034563;28;20488;-61
2023/06/12 02:23:54;;;;;;;25.73;24.03;;;26.80;45.20;;;;;;5047786;28;21179;-61
2023/06/12 02:26:22;;;;;;;25.03;23.83;;;26.70;45.30;;;;;;5054189;28;20582;-61
2023/06/12 02:29:07;;;;;;;24.23;22.93;;;26.70;45.40;;;;;;5053698;28;20498;-61
2023/06/12 02:31:34;;;;;;;24.27;22.97;;;26.70;45.60;;;;;;5053171;28;20989;-61
2023/06/12 02:34:01;;;;;;;24.03;22.93;;;26.70;45.60;;;;;;5053464;28;20448;-61
2023/06/12 02:36:29;;;;;;;24.00;22.80;;;26.60;45.60;;;;;;5052398;28;20479;-61
2023/06/12 02:38:56;;;;;;;24.97;23.77;;;26.70;45.70;;;;;;5053246;28;20487;-61
2023/06/12 02:41:23;;;;;;;25.20;23.93;;;26.70;45.60;;;;;;5046628;28;20480;-61
2023/06/12 02:43:50;;;;;;;24.10;22.90;;;26.60;45.60;;;;;;5033064;28;20485;-61
2023/06/12 02:46:17;;;;;;;25.10;23.50;;;26.60;45.60;;;;;;5033169;28;20487;-61
2023/06/12 02:48:44;;;;;;;23.70;22.60;;;26.60;45.60;;;;;;5033462;28;20480;-61
2023/06/12 02:51:11;;;;;;;24.93;23.73;;;26.60;45.70;;;;;;5037349;28;20488;-61
2023/06/12 02:53:39;;;;;;;24.57;23.33;;;26.60;45.60;;;;;;5053281;28;20476;-61
2023/06/12 02:56:06;;;;;;;24.97;23.73;;;26.50;45.40;;;;;;5053513;28;20475;-61
2023/06/12 02:58:34;;;;;;;24.53;23.30;;;26.50;45.40;;;;;;5053344;28;20959;-61
2023/06/12 03:01:03;;;;;;;24.50;23.30;;;26.50;45.50;;;;;;5050273;28;20968;-61
2023/06/12 03:03:30;;;;;;;24.20;22.90;;;26.50;45.50;;;;;;5033313;28;20437;-61
2023/06/12 03:05:57;;;;;;;25.03;23.50;;;26.40;45.40;;;;;;5032864;28;20480;-61
2023/06/12 03:08:24;;;;;;;24.70;23.40;;;26.50;45.50;;;;;;5033027;28;20473;-61
2023/06/12 03:10:52;;;;;;;24.60;23.40;;;26.50;45.40;;;;;;5033042;28;20465;-61
2023/06/12 03:13:20;;;;;;;23.90;22.70;;;26.40;45.30;;;;;;5052545;28;20464;-61
2023/06/12 03:15:47;;;;;;;24.67;23.47;;;26.40;45.30;;;;;;5052722;28;20444;-61
2023/06/12 03:18:14;;;;;;;23.80;22.70;;;26.40;45.30;;;;;;5052836;28;20455;-61
2023/06/12 03:20:41;;;;;;;24.20;23.00;;;26.40;45.00;;;;;;5052948;28;20479;-61
2023/06/12 03:23:08;;;;;;;24.50;23.30;;;26.40;45.00;;;;;;5033005;28;20576;-61
2023/06/12 03:25:35;;;;;;;23.73;22.63;;;26.40;44.90;;;;;;5032496;28;20483;-61
2023/06/12 03:28:04;;;;;;;24.77;23.37;;;26.40;45.00;;;;;;5032929;28;20449;-61
2023/06/12 03:30:31;;;;;;;24.97;23.73;;;26.30;44.90;;;;;;5032207;28;20495;-61
2023/06/12 03:32:58;;;;;;;24.80;23.60;;;26.40;44.90;;;;;;5032312;28;21042;-62
2023/06/12 03:35:25;;;;;;;24.77;23.57;;;26.30;44.70;;;;;;5031850;28;20447;-61
2023/06/12 03:37:52;;;;;;;24.27;23.07;;;26.30;44.80;;;;;;5032052;28;20964;-61
2023/06/12 03:40:19;;;;;;;24.60;23.33;;;26.30;44.80;;;;;;5031951;28;20481;-63
2023/06/12 03:42:46;;;;;;;25.13;23.83;;;26.30;45.10;;;;;;5031576;28;20483;-63
2023/06/12 03:45:15;;;;;;;25.13;23.50;;;26.30;45.30;;;;;;5032778;28;20483;-63
2023/06/12 03:47:41;;;;;;;24.77;23.57;;;26.20;45.30;;;;;;5032183;28;20507;-63
2023/06/12 03:50:10;;;;;;;25.10;23.80;;;26.20;45.10;;;;;;5031994;28;20481;-63
2023/06/12 03:52:38;;;;;;;25.33;24.00;;;26.10;45.10;;;;;;5032374;28;20472;-63
2023/06/12 03:55:05;;;;;;;25.70;24.40;;;26.10;45.10;;;;;;5032379;28;20871;-63
2023/06/12 03:57:32;;;;;;;24.37;23.17;;;26.10;44.80;;;;;;5031401;28;20533;-64
2023/06/12 03:59:59;;;;;;;25.07;23.87;;;26.10;45.00;;;;;;5031138;28;20524;-64
2023/06/12 04:02:27;;;;;;;26.67;25.33;;;26.10;44.80;;;;;;5031329;28;20489;-64
2023/06/12 04:04:54;;;;;;;26.63;25.33;;;26.10;44.60;;;;;;5031844;28;20936;-64
2023/06/12 04:07:22;;;;;;;25.83;24.53;;;26.00;44.50;;;;;;5031596;28;20453;-64
2023/06/12 04:09:49;;;;;;;26.20;24.90;;;26.00;44.60;;;;;;5031330;28;20480;-64
2023/06/12 04:12:16;;;;;;;25.90;24.60;;;26.00;44.50;;;;;;5060523;23;21019;-65
2023/06/12 04:14:43;;;;;;;26.27;24.97;;;26.10;45.20;;;;;;5083115;28;20485;-65
2023/06/12 04:17:10;;;;;;;25.63;24.40;;;26.00;44.60;;;;;;5091189;28;20948;-65
2023/06/12 04:19:40;;;;;;;25.10;23.87;;;26.00;44.80;;;;;;5082938;28;20486;-64
2023/06/12 04:22:07;;;;;;;25.67;24.43;;;26.00;44.80;;;;;;5071329;28;20479;-65
2023/06/12 04:24:34;;;;;;;26.57;25.27;;;26.00;45.00;;;;;;5071174;28;20483;-65
2023/06/12 04:27:09;;;;;;;26.33;25.03;;;26.00;45.00;;;;;;5070780;28;20449;-64
2023/06/12 04:29:38;;;;;;;28.13;26.43;;;26.00;45.00;;;;;;5051109;28;20923;-62
2023/06/12 04:32:06;;;;;;;25.93;24.67;;;26.00;45.00;;;;;;5051041;28;20460;-62
2023/06/12 04:34:39;;;;;;;26.57;25.17;;;25.90;45.30;;;;;;5051142;28;20448;-61
2023/06/12 04:37:09;;;;;;;26.50;25.00;;;26.00;45.50;;;;;;5050584;28;20444;-63
2023/06/12 04:39:36;;;;;;;27.80;26.17;;;26.00;45.90;;;;;;5051244;28;20444;-62
2023/06/12 04:42:05;;;;;;;28.70;26.97;;;26.00;46.90;;;;;;5050193;28;20559;-62
2023/06/12 04:44:34;;;;;;;28.50;26.57;;;26.00;48.00;;;;;;5050103;28;20451;-59
2023/06/12 04:47:04;;;;;;;28.00;25.67;;;26.00;48.30;;;;;;5050903;28;20459;-59
2023/06/12 04:49:33;;;;;;;28.27;26.50;;;26.10;48.00;;;;;;5051112;28;20810;-57
2023/06/12 04:52:02;;;;;;;27.83;26.10;;;26.10;47.80;;;;;;5051314;28;20971;-59
2023/06/12 04:54:35;;;;;;;26.50;25.10;;;26.10;47.70;;;;;;5051215;28;20506;-58
2023/06/12 04:57:03;;;;;;;26.33;24.83;;;26.10;47.50;;;;;;5051196;28;20535;-58
2023/06/12 04:59:37;;;;;;;27.60;25.90;;;26.10;47.50;;;;;;5054490;28;20483;-59
2023/06/12 05:02:04;;;;;;;27.90;26.30;;;26.10;47.50;;;;;;5054512;28;20546;-59
2023/06/12 05:04:32;;;;;;;26.37;24.97;;;26.20;47.50;;;;;;5054929;28;20978;-58
2023/06/12 05:07:03;;;;;;;26.40;24.93;;;26.20;47.60;;;;;;5054384;28;20459;-58
2023/06/12 05:09:31;;;;;;;26.63;25.03;;;26.20;47.70;;;;;;5054398;28;20454;-59
2023/06/12 05:12:00;;;;;;;28.03;26.40;;;26.10;47.70;;;;;;5054293;28;20518;-59
2023/06/12 05:14:27;;;;;;;27.87;26.27;;;26.20;47.90;;;;;;5054424;28;20448;-59
2023/06/12 05:16:55;;;;;;;27.23;25.67;;;26.20;47.90;;;;;;5054085;28;20527;-59
2023/06/12 05:19:22;;;;;;;27.63;26.13;;;26.20;48.00;;;;;;5054241;28;20452;-59
2023/06/12 05:21:50;;;;;;;27.00;25.60;;;26.20;48.10;;;;;;5054024;28;20511;-59
2023/06/12 05:24:17;;;;;;;27.30;25.60;;;26.20;48.10;;;;;;5054196;28;20456;-60
2023/06/12 05:26:46;;;;;;;25.97;24.60;;;26.20;48.20;;;;;;5053873;28;20509;-59
2023/06/12 05:29:12;;;;;;;25.03;23.83;;;26.20;48.90;;;;;;5054042;28;20482;-57
2023/06/12 05:31:39;;;;;;;26.10;24.80;;;26.20;48.50;;;;;;5053937;28;20538;-58
2023/06/12 05:34:06;;;;;;;27.30;25.70;;;26.20;48.50;;;;;;5053913;28;20970;-59
2023/06/12 05:36:33;;;;;;;27.33;25.83;;;26.30;48.60;;;;;;5053600;28;20526;-59
2023/06/12 05:39:00;;;;;;;25.43;24.13;;;26.30;48.70;;;;;;5053825;28;20478;-59
2023/06/12 05:41:27;;;;;;;26.40;25.10;;;26.30;48.70;;;;;;5053729;28;20983;-58
2023/06/12 05:43:55;;;;;;;28.27;26.77;;;26.30;48.80;;;;;;5053676;28;20940;-59
2023/06/12 05:46:22;;;;;;;27.87;26.13;;;26.30;48.90;;;;;;5053500;28;20475;-60
2023/06/12 05:48:49;;;;;;;26.57;25.17;;;26.30;49.10;;;;;;5053701;28;20478;-59
2023/06/12 05:51:16;;;;;;;26.37;24.97;;;26.30;49.10;;;;;;5053447;28;20796;-58
2023/06/12 05:53:44;;;;;;;26.63;25.23;;;26.30;49.20;;;;;;5053556;28;20527;-60
2023/06/12 05:56:12;;;;;;;27.03;25.63;;;26.30;49.20;;;;;;5053523;28;21016;-58
2023/06/12 05:58:40;;;;;;;25.60;24.30;;;26.30;49.20;;;;;;5053451;28;20501;-58
2023/06/12 06:01:11;;;;;;;26.60;25.30;;;26.30;49.40;;;;;;5053401;28;20448;-57
2023/06/12 06:03:42;;;;;;;27.47;25.83;;;26.30;49.40;;;;;;5053365;28;20486;-58
2023/06/12 06:06:09;;;;;;;26.60;25.30;;;26.30;49.50;;;;;;5053224;28;20449;-59
2023/06/12 06:08:36;;;;;;;27.60;26.20;;;26.30;49.60;;;;;;5053272;28;20483;-58
2023/06/12 06:11:03;;;;;;;26.90;25.50;;;26.30;49.60;;;;;;5053290;28;20476;-57
2023/06/12 06:13:31;;;;;;;26.50;25.10;;;26.30;49.70;;;;;;5053016;28;20480;-58
2023/06/12 06:15:58;;;;;;;26.57;25.23;;;26.30;49.80;;;;;;5053013;28;20961;-58
2023/06/12 06:18:26;;;;;;;26.20;25.00;;;26.40;49.90;;;;;;5053155;28;20445;-59
2023/06/12 06:20:53;;;;;;;27.00;25.70;;;26.30;50.00;;;;;;5052950;28;20993;-58
2023/06/12 06:23:20;;;;;;;27.07;25.77;;;26.30;50.00;;;;;;5052908;28;20490;-58
2023/06/12 06:25:47;;;;;;;26.10;24.83;;;26.40;50.00;;;;;;5052752;28;20471;-58
2023/06/12 06:28:14;;;;;;;26.60;25.40;;;26.40;50.00;;;;;;5052818;28;20475;-57
2023/06/12 06:30:41;;;;;;;26.30;25.07;;;26.40;49.90;;;;;;5052940;28;20444;-59
2023/06/12 06:33:08;;;;;;;26.63;25.23;;;26.40;49.90;;;;;;5052743;28;20503;-58
2023/06/12 06:35:37;;;;;;;25.97;24.77;;;26.40;49.90;;;;;;5052605;28;20480;-58
2023/06/12 06:38:03;;;;;;;28.60;26.83;;;26.40;49.90;;;;;;5052675;28;20486;-58
2023/06/12 06:40:30;;;;;;;25.00;23.90;;;26.40;49.90;;;;;;5052662;28;20486;-57
2023/06/12 06:42:57;;;;;;;27.10;25.60;;;26.40;49.90;;;;;;5052527;28;20515;-58
2023/06/12 06:45:24;;;;;;;26.67;25.47;;;26.40;49.90;;;;;;5052413;28;20476;-58
2023/06/12 06:47:51;;;;;;;27.17;25.77;;;26.40;49.80;;;;;;5052557;28;20882;-59
2023/06/12 06:50:18;;;;;;;27.23;25.67;;;26.40;49.90;;;;;;5052476;28;20535;-59
2023/06/12 06:52:46;;;;;;;27.50;26.20;;;26.40;49.90;;;;;;5052375;28;20503;-58
2023/06/12 06:55:13;;;;;;;26.17;24.87;;;26.40;49.90;;;;;;5052478;28;20479;-56
2023/06/12 06:57:42;;;;;;;26.30;25.10;;;26.40;49.80;;;;;;5052369;28;20531;-58
2023/06/12 07:00:11;;;;;;;25.93;24.73;;;26.40;49.70;;;;;;5052245;28;20448;-58
2023/06/12 07:02:40;;;;;;;26.83;25.60;;;26.50;49.90;;;;;;5052106;28;20831;-57
2023/06/12 07:05:08;;;;;;;26.87;25.50;;;26.40;50.00;;;;;;5052373;28;20452;-58
2023/06/12 07:07:35;;;;;;;27.33;26.03;;;26.40;49.90;;;;;;5051935;28;20432;-59
2023/06/12 07:10:03;;;;;;;26.47;25.07;;;26.50;50.00;;;;;;5052176;28;20535;-58
2023/06/12 07:12:30;;;;;;;26.00;24.77;;;26.50;50.00;;;;;;5051907;28;20511;-60
2023/06/12 07:14:57;;;;;;;26.60;25.33;;;26.50;50.00;;;;;;5052072;28;20487;-55
2023/06/12 07:17:24;;;;;;;26.40;25.20;;;26.50;49.90;;;;;;5051834;28;20472;-58
2023/06/12 07:19:51;;;;;;;26.73;25.43;;;26.50;49.90;;;;;;5051880;28;20498;-57
2023/06/12 07:22:18;;;;;;;25.97;24.77;;;26.50;50.00;;;;;;5051219;28;20507;-57
2023/06/12 07:24:45;;;;;;;25.97;24.67;;;26.50;50.00;;;;;;5051859;28;20572;-58
2023/06/12 07:27:14;;;;;;;25.97;24.67;;;26.50;50.00;;;;;;5051553;28;20874;-57
2023/06/12 07:29:40;;;;;;;27.30;26.00;;;26.50;50.10;;;;;;5051879;28;20577;-59
2023/06/12 07:32:09;;;;;;;26.30;25.00;;;26.50;50.10;;;;;;5051727;28;20986;-58
2023/06/12 07:34:36;;;;;;;27.67;26.17;;;26.50;50.00;;;;;;5051674;28;20440;-57
2023/06/12 07:37:04;;;;;;;26.60;25.20;;;26.50;49.90;;;;;;5051572;28;20883;-59
2023/06/12 07:39:31;;;;;;;26.53;25.23;;;26.50;49.90;;;;;;5051667;28;20464;-61
2023/06/12 07:41:58;;;;;;;27.50;26.10;;;26.50;50.10;;;;;;5051557;28;21011;-56
2023/06/12 07:44:26;;;;;;;25.43;24.23;;;26.50;50.00;;;;;;5051601;28;20563;-60
2023/06/12 07:46:53;;;;;;;26.90;25.60;;;26.50;50.20;;;;;;5051130;28;20479;-59
2023/06/12 07:49:20;;;;;;;26.50;25.30;;;26.50;50.40;;;;;;5051513;28;20482;-58
2023/06/12 07:51:47;;;;;;;27.23;25.93;;;26.50;50.30;;;;;;5051403;28;20496;-57
2023/06/12 07:54:14;;;;;;;25.90;24.70;;;26.60;50.40;;;;;;5051360;28;20484;-59
2023/06/12 07:56:42;;;;;;;27.50;25.97;;;26.60;50.40;;;;;;5051230;28;20452;-54
2023/06/12 07:59:10;;;;;;;26.53;25.23;;;26.60;50.50;;;;;;5051639;28;20448;-59
2023/06/12 08:01:39;;;;;;;27.90;26.40;;;26.60;50.50;;;;;;5051238;28;20471;-58
2023/06/12 08:04:10;;;;;;;27.50;26.00;;;26.50;50.40;;;;;;5051325;28;20515;-59
2023/06/12 08:06:37;;;;;;;26.77;25.57;;;26.60;50.40;;;;;;5051160;28;20448;-57
2023/06/12 08:09:05;;;;;;;27.17;25.77;;;26.60;50.30;;;;;;5051264;28;20455;-59
2023/06/12 08:11:32;;;;;;;27.33;25.93;;;26.60;50.10;;;;;;5051146;28;20506;-57
2023/06/12 08:13:59;;;;;;;25.93;24.73;;;26.60;50.30;;;;;;5051315;28;20502;-57
2023/06/12 08:16:26;;;;;;;28.10;26.70;;;26.60;50.80;;;;;;5051072;28;20834;-57
2023/06/12 08:18:55;;;;;;;26.87;25.57;;;26.60;50.30;;;;;;5051209;28;20977;-59
2023/06/12 08:21:22;;;;;;;27.57;26.17;;;26.60;50.30;;;;;;5051118;28;20535;-58
2023/06/12 08:23:48;;;;;;;26.90;25.60;;;26.60;50.40;;;;;;5051025;28;20575;-58
2023/06/12 08:26:16;;;;;;;26.13;24.93;;;26.60;50.20;;;;;;5051117;28;20476;-60
2023/06/12 08:28:42;;;;;;;27.27;25.97;;;26.60;50.30;;;;;;5051090;28;20444;-57
2023/06/12 08:31:09;;;;;;;25.37;24.17;;;26.60;50.30;;;;;;5051048;28;20881;-58
2023/06/12 08:33:36;;;;;;;26.20;25.00;;;26.60;50.30;;;;;;5054194;28;20522;-57
2023/06/12 08:36:05;;;;;;;26.80;25.50;;;26.60;50.40;;;;;;5054888;28;20495;-57
2023/06/12 08:38:32;;;;;;;27.83;26.43;;;26.70;50.60;;;;;;5055759;28;20448;-57
2023/06/12 08:41:01;;;;;;;28.13;26.63;;;26.70;50.60;;;;;;5057989;28;20479;-60
2023/06/12 08:43:30;;;;;;;27.53;25.93;;;26.70;50.50;;;;;;5057364;28;21080;-55
2023/06/12 08:45:58;;;;;;;27.20;25.90;;;26.70;50.60;;;;;;5056637;28;20478;-60
2023/06/12 08:48:28;;;;;;;28.13;26.53;;;26.70;50.60;;;;;;5055366;28;20443;-58
2023/06/12 08:50:55;;;;;;;27.10;25.80;;;26.70;50.60;;;;;;5055403;28;20531;-58
2023/06/12 08:53:24;;;;;;;27.80;26.40;;;26.70;50.60;;;;;;5055356;28;20855;-57
2023/06/12 08:55:51;;;;;;;27.70;26.30;;;26.70;50.70;;;;;;5054627;28;20966;-59
2023/06/12 08:58:18;;;;;;;26.93;25.63;;;26.70;50.60;;;;;;5054738;28;20479;-58
2023/06/12 09:00:45;;;;;;;26.70;25.43;;;26.70;50.80;;;;;;5054638;28;20479;-58
2023/06/12 09:03:12;;;;;;;26.30;25.00;;;26.70;50.80;;;;;;5054397;28;20499;-58
2023/06/12 09:05:40;;;;;;;27.57;26.27;;;26.70;50.70;;;;;;5054325;28;20862;-58
2023/06/12 09:08:07;;;;;;;27.47;26.13;;;26.70;50.80;;;;;;5054429;28;20530;-56
2023/06/12 09:10:38;;;;;;;26.50;25.30;;;26.70;50.70;;;;;;5054391;28;20479;-58
2023/06/12 09:13:06;;;;;;;26.17;24.97;;;26.80;50.90;;;;;;5054274;28;21002;-55
2023/06/12 09:15:33;;;;;;;27.07;25.77;;;26.80;51.00;;;;;;5054064;28;20486;-59
2023/06/12 09:18:00;;;;;;;27.13;25.83;;;26.80;50.90;;;;;;5054137;28;20528;-57
2023/06/12 09:20:28;;;;;;;27.60;26.10;;;26.80;51.00;;;;;;5054355;28;20480;-61
2023/06/12 09:22:57;;;;;;;28.17;26.67;;;26.80;51.20;;;;;;5054106;28;20522;-60
2023/06/12 09:25:27;;;;;;;27.60;26.20;;;26.80;51.00;;;;;;5054240;28;20488;-61
2023/06/12 09:27:56;;;;;;;27.67;26.37;;;26.80;51.10;;;;;;5054166;28;20445;-60
2023/06/12 09:30:22;;;;;;;27.30;26.00;;;26.80;51.10;;;;;;5054096;28;20874;-61
2023/06/12 09:32:52;;;;;;;27.17;25.87;;;26.80;51.70;;;;;;5054415;28;20999;-60
2023/06/12 09:35:19;;;;;;;27.13;25.77;;;26.80;51.10;;;;;;5053925;28;20472;-60
2023/06/12 09:37:46;;;;;;;26.77;25.47;;;26.80;51.10;;;;;;5054250;28;20475;-61
2023/06/12 09:40:15;;;;;;;28.20;26.80;;;26.80;51.10;;;;;;5054085;28;20480;-61
2023/06/12 09:42:44;;;;;;;26.70;25.50;;;26.80;51.10;;;;;;5053962;28;20816;-61
2023/06/12 09:45:17;;;;;;;28.80;27.40;;;26.90;51.20;;;;;;5053428;28;20507;-61
2023/06/12 09:47:45;;;;;;;26.70;25.50;;;26.90;51.30;;;;;;5054307;28;20538;-60
2023/06/12 09:50:12;;;;;;;28.07;26.53;;;26.80;51.30;;;;;;5054153;28;20448;-60
2023/06/12 09:52:41;;;;;;;28.73;27.13;;;26.90;51.30;;;;;;5053886;28;20479;-60
2023/06/12 09:55:10;;;;;;;27.47;26.20;;;26.80;51.30;;;;;;5053889;28;20514;-61
2023/06/12 09:57:40;;;;;;;27.53;26.13;;;26.90;51.40;;;;;;5053557;28;20543;-60
2023/06/12 10:00:11;;;;;;;28.90;27.50;;;26.90;51.40;;;;;;5053755;28;20514;-61
2023/06/12 10:02:41;;;;;;;28.33;27.03;;;26.90;51.40;;;;;;5053787;28;20494;-60
2023/06/12 10:05:17;;;;;;;27.50;26.20;;;26.90;51.40;;;;;;5053810;28;20472;-61
2023/06/12 10:07:48;;;;;;;27.67;26.37;;;26.90;51.30;;;;;;5054407;28;20447;-61
2023/06/12 10:10:16;;;;;;;27.43;26.03;;;26.90;51.40;;;;;;5053613;28;20451;-60
2023/06/12 10:12:44;;;;;;;26.70;25.50;;;26.90;51.30;;;;;;5054008;28;21078;-58
2023/06/12 10:15:13;;;;;;;27.33;26.03;;;26.90;51.30;;;;;;5053028;28;20476;-60
2023/06/12 10:17:42;;;;;;;27.73;26.37;;;26.90;51.40;;;;;;5053079;28;20452;-57
2023/06/12 10:20:11;;;;;;;27.20;25.80;;;27.00;51.40;;;;;;5053195;28;20475;-58
2023/06/12 10:22:38;;;;;;;26.77;25.57;;;26.90;51.30;;;;;;5052958;28;20534;-59
2023/06/12 10:25:07;;;;;;;27.03;25.73;;;26.90;51.30;;;;;;5052863;28;20991;-56
2023/06/12 10:27:34;;;;;;;27.07;25.83;;;27.00;51.40;;;;;;5052761;28;20892;-58
2023/06/12 10:30:01;;;;;;;26.77;25.47;;;27.00;51.30;;;;;;5052834;28;20864;-57
2023/06/12 10:32:32;;;;;;;27.13;25.83;;;27.00;51.30;;;;;;5052779;28;20576;-57
2023/06/12 10:35:01;;;;;;;26.70;25.47;;;27.00;51.30;;;;;;5052816;28;20445;-58
2023/06/12 10:37:30;;;;;;;27.77;26.40;;;27.00;51.30;;;;;;5052571;28;20967;-59
2023/06/12 10:40:11;;;;;;;27.43;26.03;;;27.00;51.20;;;;;;5052734;28;20531;-56
2023/06/12 10:42:45;;;;;;;27.80;26.50;;;27.00;51.20;;;;;;5052609;28;20958;-59
2023/06/12 10:45:20;;;;;;;27.53;26.20;;;27.00;51.20;;;;;;5052400;28;20491;-58
2023/06/12 10:48:11;;;;;;;27.40;26.10;;;27.00;51.10;;;;;;5052556;28;20444;-57
2023/06/12 10:50:42;;;;;;;26.80;25.50;;;27.10;51.20;;;;;;5052580;28;20518;-56
2023/06/12 10:53:13;;;;;;;27.37;26.07;;;27.10;51.20;;;;;;5052430;28;20471;-59
2023/06/12 10:55:40;;;;;;;27.57;26.27;;;27.10;51.20;;;;;;5051347;28;20802;-57
2023/06/12 10:58:08;;;;;;;28.00;26.70;;;27.10;51.20;;;;;;5052286;28;20523;-56
2023/06/12 11:00:36;;;;;;;28.20;26.90;;;27.10;51.10;;;;;;5052307;28;20562;-58
2023/06/12 11:03:05;;;;;;;27.10;25.80;;;27.10;51.10;;;;;;5052159;28;20476;-57
2023/06/12 11:05:34;;;;;;;27.47;26.27;;;27.10;51.10;;;;;;5051938;28;20476;-56
2023/06/12 11:08:03;;;;;;;26.80;25.60;;;27.10;51.10;;;;;;5052127;28;20475;-58
2023/06/12 11:10:32;;;;;;;28.03;26.73;;;27.10;51.10;;;;;;5052192;28;20483;-56
2023/06/12 11:12:59;;;;;;;27.40;26.10;;;27.10;51.10;;;;;;5051928;28;20512;-59
2023/06/12 11:15:26;;;;;;;27.40;26.10;;;27.10;51.10;;;;;;5051899;28;20447;-57
2023/06/12 11:17:53;;;;;;;27.50;26.20;;;27.10;51.00;;;;;;5051947;28;20498;-58
2023/06/12 11:20:22;;;;;;;28.10;26.80;;;27.10;51.00;;;;;;5051898;28;20931;-59
2023/06/12 11:22:49;;;;;;;27.40;26.10;;;27.10;51.00;;;;;;5051858;28;20468;-61
2023/06/12 11:25:18;;;;;;;27.90;26.60;;;27.20;50.90;;;;;;5051746;28;20571;-57
2023/06/12 11:27:45;;;;;;;27.53;26.23;;;27.20;50.90;;;;;;5051734;28;20460;-55
2023/06/12 11:30:13;;;;;;;28.27;26.97;;;27.20;50.90;;;;;;5051778;28;20487;-59
2023/06/12 11:32:41;;;;;;;27.20;25.90;;;27.20;50.80;;;;;;5051504;28;20468;-58
2023/06/12 11:35:09;;;;;;;27.53;26.23;;;27.20;50.70;;;;;;5051693;28;20505;-60
2023/06/12 11:37:37;;;;;;;27.73;26.43;;;27.20;50.70;;;;;;5051484;28;20502;-58
2023/06/12 11:40:07;;;;;;;28.27;26.87;;;27.20;50.50;;;;;;5051729;28;20482;-57
2023/06/12 11:42:37;;;;;;;28.17;26.77;;;27.20;50.50;;;;;;5051582;28;20527;-57
2023/06/12 11:45:07;;;;;;;27.80;26.50;;;27.20;50.60;;;;;;5051490;28;20491;-54
2023/06/12 11:47:36;;;;;;;27.53;26.17;;;27.20;50.60;;;;;;5051316;28;20480;-59
2023/06/12 11:50:05;;;;;;;27.80;26.40;;;27.30;50.60;;;;;;5051638;28;20483;-59
2023/06/12 11:52:33;;;;;;;27.90;26.50;;;27.20;50.60;;;;;;5051422;28;20502;-58
2023/06/12 11:55:02;;;;;;;29.70;28.20;;;27.30;50.50;;;;;;5051474;28;20520;-59
2023/06/12 11:57:29;;;;;;;27.90;26.60;;;27.30;50.50;;;;;;5051252;28;20466;-58
2023/06/12 11:59:58;;;;;;;29.27;27.87;;;27.30;50.50;;;;;;5051554;28;20863;-61
2023/06/12 12:02:31;;;;;;;27.40;26.10;;;27.30;50.50;;;;;;5051334;28;20487;-59
2023/06/12 12:05:00;;;;;;;28.20;26.80;;;27.30;50.50;;;;;;5051344;28;20480;-61
2023/06/12 12:07:29;;;;;;;27.57;26.27;;;27.30;50.50;;;;;;5050889;28;20448;-57
2023/06/12 12:10:08;;;;;;;27.63;26.33;;;27.30;50.50;;;;;;5051445;28;20448;-59
2023/06/12 12:12:46;;;;;;;28.30;26.90;;;27.40;50.50;;;;;;5051078;28;20476;-57
2023/06/12 12:15:15;;;;;;;27.83;26.53;;;27.40;50.40;;;;;;5051317;28;20448;-59
2023/06/12 12:17:43;;;;;;;28.47;27.10;;;27.40;50.30;;;;;;5051063;28;20491;-58
2023/06/12 12:20:16;;;;;;;27.60;26.30;;;27.40;50.30;;;;;;5051292;28;20480;-59
2023/06/12 12:22:46;;;;;;;27.60;26.30;;;27.40;50.30;;;;;;5051186;28;20460;-59
2023/06/12 12:25:16;;;;;;;27.17;25.90;;;27.40;50.30;;;;;;5051366;28;20569;-58
2023/06/12 12:27:45;;;;;;;28.17;26.77;;;27.40;50.20;;;;;;5050942;28;20527;-57
2023/06/12 12:30:17;;;;;;;27.70;26.33;;;27.40;50.00;;;;;;5051361;28;20823;-55
2023/06/12 12:32:45;;;;;;;27.73;26.33;;;27.50;49.90;;;;;;5051255;28;21011;-58
2023/06/12 12:35:13;;;;;;;26.70;25.40;;;27.50;50.00;;;;;;5051147;28;20472;-58